Time;durP1;ratioP1;P1;durP2;ratioP2;P2;SDS_P1;SDS_P2;PMS_P1;PMS_P2;Temp;Humidity;BMP_temperature;BMP_pressure;BME280_temperature;BME280_humidity;BME280_pressure;Samples;Min_cycle;Max_cycle;Signal;HPM_P1;HPM_P2
2022/04/05 00:00:17;;;;;;;21.10;17.38;;;;;;;7.04;100.00;99638.41;5046444;28;20032;-61
2022/04/05 00:02:43;;;;;;;20.67;17.92;;;;;;;7.07;100.00;99627.81;5046663;28;20820;-61
2022/04/05 00:05:08;;;;;;;20.23;18.13;;;;;;;7.04;100.00;99617.50;5047980;28;20031;-61
2022/04/05 00:07:33;;;;;;;21.48;19.15;;;;;;;7.13;100.00;99620.53;5046981;28;20024;-61
2022/04/05 00:09:59;;;;;;;20.30;18.13;;;;;;;7.15;100.00;99623.91;5046569;28;20058;-61
2022/04/05 00:12:24;;;;;;;21.60;19.42;;;;;;;7.06;100.00;99606.06;5047888;28;20818;-61
2022/04/05 00:14:50;;;;;;;21.95;18.83;;;;;;;7.19;100.00;99619.41;5047610;28;20093;-61
2022/04/05 00:17:15;;;;;;;19.38;17.38;;;;;;;7.23;100.00;99627.94;5046468;28;20105;-61
2022/04/05 00:19:40;;;;;;;20.25;18.10;;;;;;;7.25;100.00;99626.94;5046112;28;20792;-61
2022/04/05 00:22:06;;;;;;;20.42;18.33;;;;;;;7.14;100.00;99601.31;5028322;28;20094;-60
2022/04/05 00:24:31;;;;;;;21.10;18.98;;;;;;;7.27;100.00;99613.78;5046890;28;20039;-60
2022/04/05 00:26:57;;;;;;;21.85;19.30;;;;;;;7.33;100.00;99618.72;5046814;28;20067;-60
2022/04/05 00:29:23;;;;;;;25.17;20.50;;;;;;;7.33;100.00;99610.88;5047625;28;20940;-61
2022/04/05 00:31:50;;;;;;;27.10;21.50;;;;;;;7.37;100.00;99620.25;5029639;28;20938;-61
2022/04/05 00:34:16;;;;;;;21.98;19.60;;;;;;;7.41;100.00;99624.38;5046710;28;20269;-60
2022/04/05 00:36:42;;;;;;;20.08;17.92;;;;;;;7.44;100.00;99616.41;5045945;28;20573;-61
2022/04/05 00:39:07;;;;;;;19.75;17.65;;;;;;;7.44;100.00;99611.16;5046914;28;20034;-61
2022/04/05 00:41:32;;;;;;;23.13;17.98;;;;;;;7.48;100.00;99612.72;5047134;28;20027;-61
2022/04/05 00:43:58;;;;;;;21.63;16.88;;;;;;;7.49;100.00;99607.41;5047082;28;20094;-61
2022/04/05 00:46:23;;;;;;;18.45;16.58;;;;;;;7.37;100.00;99594.13;5045462;28;20024;-61
2022/04/05 00:48:51;;;;;;;18.95;16.77;;;;;;;7.55;100.00;99619.31;5045560;28;20028;-61
2022/04/05 00:51:18;;;;;;;17.08;15.32;;;;;;;7.50;100.00;99610.88;5046722;28;20035;-61
2022/04/05 00:53:47;;;;;;;20.25;18.15;;;;;;;7.56;100.00;99610.56;5047463;28;20131;-61
2022/04/05 00:56:16;;;;;;;20.02;16.88;;;;;;;7.56;100.00;99607.97;5046394;28;20033;-61
2022/04/05 00:58:50;;;;;;;18.52;16.63;;;;;;;7.56;100.00;99605.34;5045756;28;20031;-61
2022/04/05 01:01:18;;;;;;;19.65;17.65;;;;;;;7.61;100.00;99608.56;5045531;28;20035;-61
2022/04/05 01:03:48;;;;;;;22.52;18.95;;;;;;;7.64;100.00;99613.63;5047251;28;20059;-61
2022/04/05 01:06:28;;;;;;;20.27;17.80;;;;;;;7.58;100.00;99596.50;5027804;28;20036;-61
2022/04/05 01:08:55;;;;;;;19.98;17.88;;;;;;;7.66;100.00;99607.41;5027751;28;20791;-61
2022/04/05 01:11:20;;;;;;;20.27;17.30;;;;;;;7.69;100.00;99602.03;5045250;28;20027;-61
2022/04/05 01:13:45;;;;;;;21.52;18.90;;;;;;;7.61;100.00;99593.72;5045314;28;20881;-60
2022/04/05 01:16:11;;;;;;;20.42;16.70;;;;;;;7.63;100.00;99588.44;5046846;28;20024;-60
2022/04/05 01:18:38;;;;;;;19.42;16.83;;;;;;;7.54;100.00;99568.81;5046500;28;20020;-61
2022/04/05 01:21:03;;;;;;;20.13;17.92;;;;;;;7.84;100.00;99612.63;5045404;28;20064;-61
2022/04/05 01:23:29;;;;;;;21.65;19.27;;;;;;;7.81;100.00;99595.31;5044367;28;20020;-61
2022/04/05 01:25:56;;;;;;;21.55;19.25;;;;;;;7.82;100.00;99599.63;5045040;28;20892;-61
2022/04/05 01:28:25;;;;;;;22.40;17.67;;;;;;;7.89;100.00;99614.06;5045252;28;20024;-61
2022/04/05 01:30:51;;;;;;;23.25;19.55;;;;;;;7.90;100.00;99610.53;5047044;28;20097;-61
2022/04/05 01:33:17;;;;;;;22.88;20.25;;;;;;;7.82;100.00;99602.22;5045282;28;20407;-61
2022/04/05 01:35:42;;;;;;;22.90;19.55;;;;;;;7.86;100.00;99601.16;5034967;28;20027;-61
2022/04/05 01:38:09;;;;;;;22.48;20.17;;;;;;;7.96;100.00;99614.59;5054280;28;20032;-61
2022/04/05 01:40:34;;;;;;;22.40;20.05;;;;;;;7.74;100.00;99580.84;5031470;28;20028;-61
2022/04/05 01:43:00;;;;;;;23.50;19.77;;;;;;;7.90;100.00;99602.69;5032144;28;20201;-61
2022/04/05 01:45:25;;;;;;;22.75;20.45;;;;;;;7.74;100.00;99572.19;5050705;28;20032;-61
2022/04/05 01:47:51;;;;;;;23.67;21.38;;;;;;;8.00;100.00;99609.13;5049584;28;20874;-61
2022/04/05 01:50:16;;;;;;;23.92;20.45;;;;;;;8.00;100.00;99601.28;5048873;28;20135;-61
2022/04/05 01:52:42;;;;;;;20.92;18.75;;;;;;;8.00;100.00;99605.66;5049312;28;20020;-60
2022/04/05 01:55:08;;;;;;;24.27;21.67;;;;;;;7.90;100.00;99579.16;5049797;28;20031;-60
2022/04/05 01:57:33;;;;;;;23.52;21.15;;;;;;;7.99;100.00;99594.34;5049001;28;20028;-60
2022/04/05 01:59:59;;;;;;;24.23;21.70;;;;;;;8.07;100.00;99601.81;5048788;28;20070;-60
2022/04/05 02:02:24;;;;;;;25.73;21.90;;;;;;;8.10;100.00;99597.25;5049371;28;20035;-62
2022/04/05 02:04:50;;;;;;;23.67;20.75;;;;;;;8.04;100.00;99587.09;5069229;28;20897;-61
2022/04/05 02:07:17;;;;;;;24.67;21.60;;;;;;;8.11;100.00;99596.31;5069032;28;20895;-61
2022/04/05 02:09:44;;;;;;;22.08;19.88;;;;;;;8.14;100.00;99597.94;5050993;28;20224;-61
2022/04/05 02:12:10;;;;;;;23.45;20.80;;;;;;;8.13;100.00;99599.72;5069221;28;20027;-61
2022/04/05 02:14:37;;;;;;;25.27;20.92;;;;;;;8.15;100.00;99590.00;5070953;28;20055;-60
2022/04/05 02:17:02;;;;;;;22.95;20.52;;;;;;;8.10;100.00;99583.31;5050827;28;20139;-61
2022/04/05 02:19:28;;;;;;;32.35;21.67;;;;;;;8.07;100.00;99581.72;5068460;28;20081;-60
2022/04/05 02:21:54;;;;;;;23.52;21.02;;;;;;;8.25;100.00;99607.84;5068766;28;20080;-60
2022/04/05 02:24:19;;;;;;;25.13;22.45;;;;;;;8.19;100.00;99591.53;5069039;28;20053;-60
2022/04/05 02:26:45;;;;;;;28.30;24.13;;;;;;;8.18;100.00;99588.97;5070476;28;20950;-61
2022/04/05 02:29:10;;;;;;;27.40;24.17;;;;;;;8.26;100.00;99599.03;5069910;28;20023;-61
2022/04/05 02:31:37;;;;;;;36.35;25.45;;;;;;;8.24;100.00;99588.69;5068757;28;20805;-61
2022/04/05 02:34:02;;;;;;;26.65;23.95;;;;;;;8.29;100.00;99596.28;5068530;28;20131;-60
2022/04/05 02:36:27;;;;;;;28.40;25.45;;;;;;;8.22;100.00;99585.28;5070122;28;20224;-61
2022/04/05 02:38:53;;;;;;;30.65;26.55;;;;;;;8.25;100.00;99585.13;5068322;28;20068;-60
2022/04/05 02:41:18;;;;;;;27.63;24.75;;;;;;;8.34;100.00;99599.53;5052092;28;20035;-61
2022/04/05 02:43:44;;;;;;;27.35;24.52;;;;;;;8.26;100.00;99588.56;5068765;28;20031;-61
2022/04/05 02:46:11;;;;;;;31.60;26.45;;;;;;;8.33;100.00;99596.06;5068467;28;20843;-60
2022/04/05 02:48:43;;;;;;;29.45;24.70;;;;;;;8.08;100.00;99557.22;5067358;28;20023;-60
2022/04/05 02:51:11;;;;;;;31.63;27.15;;;;;;;8.39;100.00;99592.25;5070253;28;20023;-60
2022/04/05 02:53:36;;;;;;;28.52;24.70;;;;;;;8.41;100.00;99596.50;5069399;28;20030;-60
2022/04/05 02:56:01;;;;;;;30.95;25.75;;;;;;;8.39;100.00;99585.25;5069461;28;20798;-60
2022/04/05 02:58:27;;;;;;;29.98;25.77;;;;;;;8.41;100.00;99585.19;5069117;28;20027;-61
2022/04/05 03:00:53;;;;;;;29.13;26.05;;;;;;;8.45;100.00;99591.94;5048132;28;20146;-61
2022/04/05 03:03:18;;;;;;;31.88;26.45;;;;;;;8.48;100.00;99597.00;5048061;28;20047;-60
2022/04/05 03:05:43;;;;;;;28.98;25.55;;;;;;;8.45;100.00;99591.94;5049830;28;20808;-60
2022/04/05 03:08:09;;;;;;;33.38;27.02;;;;;;;8.48;100.00;99591.78;5048167;28;20043;-60
2022/04/05 03:10:34;;;;;;;34.00;28.30;;;;;;;8.46;100.00;99591.00;5047655;28;20028;-61
2022/04/05 03:13:04;;;;;;;30.60;27.35;;;;;;;8.30;100.00;99556.13;5048122;28;20175;-60
2022/04/05 03:15:29;;;;;;;35.35;31.52;;;;;;;8.59;100.00;99586.78;5047730;28;20034;-60
2022/04/05 03:17:55;;;;;;;37.78;31.02;;;;;;;8.63;100.00;99590.91;5048770;28;20016;-60
2022/04/05 03:20:20;;;;;;;35.55;31.33;;;;;;;8.60;100.00;99591.94;5047572;28;20024;-60
2022/04/05 03:22:46;;;;;;;34.60;30.67;;;;;;;8.63;100.00;99585.69;5048503;28;20139;-60
2022/04/05 03:25:11;;;;;;;37.88;31.88;;;;;;;8.64;100.00;99587.38;5046348;28;20124;-60
2022/04/05 03:27:41;;;;;;;35.97;29.80;;;;;;;8.71;100.00;99604.44;5048804;28;20024;-60
2022/04/05 03:30:08;;;;;;;36.92;31.63;;;;;;;8.68;100.00;99583.66;5048699;28;20059;-60
2022/04/05 03:32:34;;;;;;;54.72;32.55;;;;;;;8.72;100.00;99590.41;5047264;28;20032;-60
2022/04/05 03:34:59;;;;;;;36.38;30.77;;;;;;;8.73;100.00;99592.94;5047459;28;20849;-60
2022/04/05 03:37:25;;;;;;;41.38;30.27;;;;;;;8.69;100.00;99574.84;5047367;28;20031;-61
2022/04/05 03:39:50;;;;;;;38.22;32.63;;;;;;;8.75;100.00;99585.03;5048332;28;20457;-60
2022/04/05 03:42:16;;;;;;;39.78;32.28;;;;;;;8.72;100.00;99575.53;5048766;28;20024;-60
2022/04/05 03:44:41;;;;;;;36.25;31.63;;;;;;;8.74;100.00;99583.31;5047818;28;20853;-60
2022/04/05 03:47:06;;;;;;;35.90;32.03;;;;;;;8.78;100.00;99589.22;5047069;28;20093;-60
2022/04/05 03:49:32;;;;;;;37.03;32.42;;;;;;;8.73;100.00;99582.47;5047578;28;20078;-60
2022/04/05 03:51:57;;;;;;;37.13;30.27;;;;;;;8.72;100.00;99585.16;5048140;28;20035;-60
2022/04/05 03:54:22;;;;;;;36.72;31.60;;;;;;;8.68;100.00;99578.44;5046490;28;20028;-60
2022/04/05 03:56:48;;;;;;;41.83;34.80;;;;;;;8.75;100.00;99590.25;5046918;28;20035;-61
2022/04/05 03:59:13;;;;;;;50.55;35.72;;;;;;;8.73;100.00;99587.72;5049219;28;20030;-60
2022/04/05 04:01:38;;;;;;;48.08;33.47;;;;;;;8.80;100.00;99593.44;5048224;28;20034;-60
2022/04/05 04:04:04;;;;;;;38.10;32.65;;;;;;;8.78;100.00;99590.09;5046444;28;20030;-60
2022/04/05 04:06:29;;;;;;;36.15;32.30;;;;;;;8.82;100.00;99594.19;5046718;28;20024;-60
2022/04/05 04:08:55;;;;;;;35.25;31.58;;;;;;;8.84;100.00;99594.97;5047562;28;20066;-60
2022/04/05 04:11:20;;;;;;;39.83;32.55;;;;;;;8.75;100.00;99577.16;5046385;28;20051;-60
2022/04/05 04:13:45;;;;;;;38.22;32.90;;;;;;;8.82;100.00;99591.56;5047992;28;20028;-60
2022/04/05 04:16:11;;;;;;;35.67;31.60;;;;;;;8.84;100.00;99594.13;5045538;28;20810;-60
2022/04/05 04:18:36;;;;;;;37.95;32.78;;;;;;;8.80;100.00;99587.34;5046599;28;20054;-60
2022/04/05 04:21:02;;;;;;;36.97;30.98;;;;;;;8.77;100.00;99582.28;5047577;28;20147;-60
2022/04/05 04:23:27;;;;;;;40.13;33.35;;;;;;;8.84;100.00;99589.72;5046439;28;20066;-60
2022/04/05 04:25:53;;;;;;;38.15;34.08;;;;;;;8.70;100.00;99568.69;5046431;28;20020;-61
2022/04/05 04:28:18;;;;;;;41.35;35.38;;;;;;;8.89;100.00;99594.72;5046228;28;20972;-61
2022/04/05 04:30:43;;;;;;;40.45;32.97;;;;;;;8.88;100.00;99593.88;5048584;28;20040;-61
2022/04/05 04:33:09;;;;;;;46.92;35.13;;;;;;;8.60;100.00;99549.19;5046104;28;20028;-61
2022/04/05 04:35:38;;;;;;;41.83;33.50;;;;;;;8.91;100.00;99600.72;5046903;28;20028;-60
2022/04/05 04:38:03;;;;;;;36.75;32.55;;;;;;;8.91;100.00;99596.31;5045779;28;20153;-61
2022/04/05 04:40:28;;;;;;;40.20;33.03;;;;;;;8.89;100.00;99598.16;5047396;28;20033;-60
2022/04/05 04:42:54;;;;;;;37.58;33.13;;;;;;;8.94;100.00;99605.78;5046162;28;20056;-60
2022/04/05 04:45:20;;;;;;;34.13;30.55;;;;;;;8.94;100.00;99604.00;5044878;28;20035;-60
2022/04/05 04:47:45;;;;;;;38.15;32.72;;;;;;;8.81;100.00;99579.44;5045183;28;20974;-61
2022/04/05 04:50:11;;;;;;;37.50;32.63;;;;;;;8.95;100.00;99602.22;5044685;28;20028;-60
2022/04/05 04:52:37;;;;;;;41.95;33.92;;;;;;;8.93;100.00;99599.69;5045350;28;20028;-60
2022/04/05 04:55:04;;;;;;;34.97;31.25;;;;;;;8.88;100.00;99591.25;5045464;28;20035;-60
2022/04/05 04:57:30;;;;;;;34.42;30.92;;;;;;;8.85;100.00;99585.34;5047192;28;20039;-60
2022/04/05 04:59:55;;;;;;;36.90;31.25;;;;;;;8.81;100.00;99573.34;5047284;28;20062;-60
2022/04/05 05:02:22;;;;;;;34.03;30.15;;;;;;;8.90;100.00;99592.00;5046121;28;20051;-60
2022/04/05 05:04:49;;;;;;;34.03;29.42;;;;;;;8.97;100.00;99611.69;5044709;28;20218;-60
2022/04/05 05:07:15;;;;;;;33.42;28.77;;;;;;;8.95;100.00;99608.31;5044543;28;20032;-60
2022/04/05 05:09:40;;;;;;;34.35;30.23;;;;;;;8.93;100.00;99602.31;5026913;28;20071;-60
2022/04/05 05:12:06;;;;;;;35.15;29.67;;;;;;;8.79;100.00;99575.22;5044288;28;20874;-60
2022/04/05 05:14:31;;;;;;;37.03;31.08;;;;;;;8.97;100.00;99605.59;5046065;28;20873;-60
2022/04/05 05:16:57;;;;;;;34.00;30.40;;;;;;;8.97;100.00;99603.84;5043935;28;20023;-60
2022/04/05 05:19:22;;;;;;;39.28;29.25;;;;;;;8.76;100.00;99573.59;5046750;28;20024;-60
2022/04/05 05:21:48;;;;;;;35.67;29.58;;;;;;;8.93;100.00;99599.69;5045429;28;20027;-60
2022/04/05 05:24:13;;;;;;;29.42;26.50;;;;;;;8.90;100.00;99594.63;5045435;28;20934;-60
2022/04/05 05:26:39;;;;;;;31.95;27.83;;;;;;;8.98;100.00;99608.16;5044495;28;20042;-60
2022/04/05 05:29:05;;;;;;;30.50;27.17;;;;;;;8.93;100.00;99594.44;5044878;28;20916;-60
2022/04/05 05:31:30;;;;;;;34.38;29.13;;;;;;;8.99;100.00;99604.56;5046225;28;20881;-60
2022/04/05 05:33:56;;;;;;;30.65;27.23;;;;;;;8.95;100.00;99600.47;5045404;28;20032;-60
2022/04/05 05:36:22;;;;;;;35.55;30.55;;;;;;;8.85;100.00;99570.47;5026647;28;20031;-60
2022/04/05 05:38:47;;;;;;;34.63;26.42;;;;;;;9.02;100.00;99614.88;5044809;28;20020;-60
2022/04/05 05:41:12;;;;;;;30.38;26.90;;;;;;;8.98;100.00;99612.53;5027559;28;20028;-60
2022/04/05 05:43:38;;;;;;;37.67;27.88;;;;;;;8.93;100.00;99598.84;5045003;28;20035;-60
2022/04/05 05:46:06;;;;;;;30.17;26.75;;;;;;;9.01;100.00;99617.59;5046716;28;20059;-60
2022/04/05 05:48:35;;;;;;;31.33;28.00;;;;;;;8.96;100.00;99615.22;5044634;28;20107;-60
2022/04/05 05:51:00;;;;;;;31.08;27.65;;;;;;;8.96;100.00;99606.53;5044554;28;20090;-60
2022/04/05 05:53:27;;;;;;;30.92;27.42;;;;;;;8.91;100.00;99600.72;5045452;28;20853;-60
2022/04/05 05:55:53;;;;;;;29.60;26.13;;;;;;;8.81;100.00;99589.06;5045900;28;20036;-60
2022/04/05 05:58:18;;;;;;;31.23;26.63;;;;;;;9.00;100.00;99624.63;5044644;28;20179;-60
2022/04/05 06:00:44;;;;;;;27.92;24.92;;;;;;;9.02;100.00;99627.97;5044144;28;20032;-60
2022/04/05 06:03:10;;;;;;;29.85;26.48;;;;;;;9.04;100.00;99626.13;5028728;28;20024;-59
2022/04/05 06:05:36;;;;;;;32.45;28.75;;;;;;;8.95;100.00;99613.56;5045698;28;20031;-59
2022/04/05 06:08:02;;;;;;;28.90;25.83;;;;;;;9.04;100.00;99633.16;5068788;28;20074;-60
2022/04/05 06:10:27;;;;;;;32.85;26.60;;;;;;;8.98;100.00;99618.63;5092865;28;20390;-60
2022/04/05 06:12:55;;;;;;;36.30;27.85;;;;;;;9.00;100.00;99621.16;5091892;28;20032;-59
2022/04/05 06:15:21;;;;;;;27.00;23.77;;;;;;;9.05;100.00;99634.84;5074638;28;20026;-59
2022/04/05 06:17:48;;;;;;;33.42;23.58;;;;;;;9.05;100.00;99638.31;5092282;28;20119;-60
2022/04/05 06:20:16;;;;;;;28.38;25.02;;;;;;;9.04;100.00;99627.91;5092289;28;20150;-60
2022/04/05 06:22:57;;;;;;;35.65;26.70;;;;;;;9.03;100.00;99637.53;5074154;28;20386;-59
2022/04/05 06:25:30;;;;;;;29.13;25.50;;;;;;;9.02;100.00;99624.53;5050575;28;20101;-59
2022/04/05 06:27:56;;;;;;;28.83;24.50;;;;;;;9.02;100.00;99624.53;5030112;28;20553;-60
2022/04/05 06:30:22;;;;;;;30.50;23.70;;;;;;;9.08;100.00;99646.00;5042232;28;20042;-60
2022/04/05 06:32:48;;;;;;;26.60;22.60;;;;;;;9.08;100.00;99651.25;5079880;28;20382;-60
2022/04/05 06:35:14;;;;;;;26.60;23.90;;;;;;;9.07;100.00;99648.69;5094020;28;20131;-59
2022/04/05 06:37:44;;;;;;;26.45;23.63;;;;;;;9.10;100.00;99659.84;5093371;28;20031;-60
2022/04/05 06:40:10;;;;;;;27.77;24.90;;;;;;;9.09;100.00;99673.88;5065848;28;20522;-59
2022/04/05 06:42:41;;;;;;;26.50;22.88;;;;;;;9.09;100.00;99663.41;5075407;28;20036;-59
2022/04/05 06:45:11;;;;;;;26.48;22.50;;;;;;;9.10;100.00;99664.25;5047179;28;20094;-60
2022/04/05 06:47:37;;;;;;;24.58;22.05;;;;;;;9.08;100.00;99674.84;5050314;28;20031;-60
2022/04/05 06:50:05;;;;;;;25.38;22.83;;;;;;;9.07;100.00;99665.28;5031334;28;20012;-59
2022/04/05 06:52:30;;;;;;;25.42;22.73;;;;;;;8.73;100.00;99618.28;5050986;28;20020;-60
2022/04/05 06:54:56;;;;;;;27.65;24.92;;;;;;;8.97;100.00;99658.84;5049599;28;20030;-60
2022/04/05 06:57:21;;;;;;;24.80;22.17;;;;;;;9.01;100.00;99665.63;5033568;28;20930;-60
2022/04/05 06:59:46;;;;;;;30.33;27.08;;;;;;;9.07;100.00;99678.38;5062092;28;20028;-59
2022/04/05 07:02:12;;;;;;;31.77;28.58;;;;;;;9.06;100.00;99675.81;5076140;28;20024;-59
2022/04/05 07:04:37;;;;;;;30.50;27.35;;;;;;;9.05;100.00;99680.25;5076694;28;20052;-60
2022/04/05 07:07:02;;;;;;;30.55;27.27;;;;;;;9.02;100.00;99671.72;5090485;28;20024;-60
2022/04/05 07:09:28;;;;;;;28.58;24.98;;;;;;;9.05;100.00;99682.88;5093258;28;20115;-60
2022/04/05 07:11:53;;;;;;;33.80;27.63;;;;;;;8.97;100.00;99664.09;5094726;28;20094;-60
2022/04/05 07:14:19;;;;;;;29.95;26.80;;;;;;;9.06;100.00;99676.66;5093499;28;20042;-60
2022/04/05 07:16:44;;;;;;;30.90;25.25;;;;;;;9.08;100.00;99682.69;5093751;28;20031;-60
2022/04/05 07:19:09;;;;;;;31.58;26.85;;;;;;;9.07;100.00;99678.38;5089300;28;20035;-60
2022/04/05 07:21:35;;;;;;;28.42;25.30;;;;;;;9.12;100.00;99683.38;5092453;28;20428;-60
2022/04/05 07:24:00;;;;;;;30.77;27.35;;;;;;;9.03;100.00;99663.75;5075520;28;20104;-60
2022/04/05 07:26:25;;;;;;;32.05;26.40;;;;;;;9.05;100.00;99677.63;5083267;28;20036;-60
2022/04/05 07:28:51;;;;;;;29.38;26.40;;;;;;;9.10;100.00;99686.06;5094310;28;20405;-60
2022/04/05 07:31:16;;;;;;;28.80;25.70;;;;;;;9.08;100.00;99671.34;5093962;28;20067;-60
2022/04/05 07:33:42;;;;;;;28.50;24.80;;;;;;;9.12;100.00;99672.88;5094084;28;20028;-60
2022/04/05 07:36:07;;;;;;;29.23;25.48;;;;;;;9.20;100.00;99686.38;5092691;28;20040;-60
2022/04/05 07:38:33;;;;;;;25.40;23.05;;;;;;;9.16;100.00;99677.84;5092500;28;20031;-60
2022/04/05 07:40:58;;;;;;;26.75;23.42;;;;;;;9.19;100.00;99682.91;5085132;28;20072;-60
2022/04/05 07:43:26;;;;;;;24.02;21.60;;;;;;;9.11;100.00;99669.41;5081980;28;20080;-60
2022/04/05 07:45:52;;;;;;;27.52;24.58;;;;;;;9.07;100.00;99660.03;5079471;28;20028;-60
2022/04/05 07:48:19;;;;;;;25.60;22.30;;;;;;;9.21;100.00;99675.84;5091709;28;20024;-60
2022/04/05 07:50:44;;;;;;;26.67;23.50;;;;;;;9.09;100.00;99659.97;5093022;28;20406;-60
2022/04/05 07:53:10;;;;;;;27.63;22.65;;;;;;;9.20;100.00;99676.75;5091892;28;20050;-60
2022/04/05 07:55:35;;;;;;;26.45;23.73;;;;;;;9.21;100.00;99678.44;5093397;28;20039;-59
2022/04/05 07:58:00;;;;;;;25.00;22.42;;;;;;;9.20;100.00;99687.25;5092383;28;20028;-60
2022/04/05 08:00:27;;;;;;;26.27;22.88;;;;;;;9.18;100.00;99673.38;5091462;28;20020;-60
2022/04/05 08:02:52;;;;;;;24.33;20.85;;;;;;;9.13;100.00;99678.03;5071318;28;20036;-59
2022/04/05 08:05:18;;;;;;;24.98;22.02;;;;;;;9.18;100.00;99683.88;5072990;28;20386;-60
2022/04/05 08:07:44;;;;;;;22.58;20.38;;;;;;;9.15;100.00;99667.47;5066431;28;20123;-60
2022/04/05 08:10:10;;;;;;;22.52;20.17;;;;;;;9.26;100.00;99675.56;5011569;28;20859;-60
2022/04/05 08:12:42;;;;;;;24.33;21.48;;;;;;;9.29;100.00;99678.03;5028501;28;20028;-60
2022/04/05 08:15:09;;;;;;;25.10;20.15;;;;;;;9.27;100.00;99676.41;5027058;28;20040;-60
2022/04/05 08:17:35;;;;;;;23.40;18.92;;;;;;;9.16;100.00;99664.75;5037581;28;20066;-60
2022/04/05 08:20:00;;;;;;;23.50;18.10;;;;;;;9.30;100.00;99686.72;5047567;28;20965;-60
2022/04/05 08:22:25;;;;;;;26.00;20.67;;;;;;;9.35;100.00;99684.69;5044370;28;20829;-60
2022/04/05 08:24:51;;;;;;;20.70;18.42;;;;;;;9.32;100.00;99690.09;5042795;28;20907;-60
2022/04/05 08:27:16;;;;;;;19.40;17.30;;;;;;;9.28;100.00;99678.09;5065181;28;20127;-60
2022/04/05 08:29:41;;;;;;;22.75;19.05;;;;;;;9.29;100.00;99674.56;5091896;28;20062;-60
2022/04/05 08:32:07;;;;;;;21.05;16.80;;;;;;;9.30;100.00;99690.19;5093312;28;20103;-60
2022/04/05 08:34:33;;;;;;;20.20;17.63;;;;;;;9.33;100.00;99681.31;5109754;28;20020;-61
2022/04/05 08:36:59;;;;;;;20.52;17.33;;;;;;;9.33;100.00;99686.56;5113704;28;20042;-60
2022/04/05 08:39:24;;;;;;;18.48;16.58;;;;;;;9.31;100.00;99677.94;5100536;28;20502;-60
2022/04/05 08:41:50;;;;;;;20.60;17.75;;;;;;;9.39;100.00;99697.56;5078664;28;20021;-61
2022/04/05 08:44:16;;;;;;;19.98;17.42;;;;;;;9.35;100.00;99684.69;5052829;28;20378;-60
2022/04/05 08:46:42;;;;;;;19.77;17.05;;;;;;;9.35;100.00;99680.28;5071464;28;20028;-59
2022/04/05 08:49:08;;;;;;;21.83;17.35;;;;;;;9.37;100.00;99677.56;5072295;28;20382;-60
2022/04/05 08:51:34;;;;;;;17.58;15.68;;;;;;;9.47;100.00;99708.44;5071677;28;20436;-60
2022/04/05 08:53:59;;;;;;;19.90;17.30;;;;;;;9.47;100.00;99694.47;5071556;28;20514;-60
2022/04/05 08:56:27;;;;;;;19.08;16.60;;;;;;;9.47;100.00;99705.81;5071974;28;20031;-60
2022/04/05 08:58:53;;;;;;;18.33;16.30;;;;;;;9.52;100.00;99701.16;5062228;28;20087;-60
2022/04/05 09:01:19;;;;;;;16.58;14.70;;;;;;;9.54;100.00;99698.44;5040242;28;20020;-60
2022/04/05 09:03:44;;;;;;;18.42;16.52;;;;;;;9.48;100.00;99678.66;5065250;28;20506;-60
2022/04/05 09:06:27;;;;;;;17.15;15.40;;;;;;;9.64;100.00;99707.47;5091616;28;20107;-60
2022/04/05 09:09:17;;;;;;;18.10;16.27;;;;;;;9.49;100.00;99682.97;5091592;28;20020;-60
2022/04/05 09:11:43;;;;;;;16.80;15.10;;;;;;;9.72;100.00;99710.50;5090103;28;20096;-60
2022/04/05 09:14:09;;;;;;;18.50;15.52;;;;;;;9.84;100.00;99709.78;5090509;28;20036;-59
2022/04/05 09:16:35;;;;;;;18.80;14.68;;;;;;;9.77;100.00;99698.81;5090475;28;20039;-60
2022/04/05 09:19:12;;;;;;;17.70;15.88;;;;;;;9.71;100.00;99693.91;5087705;28;20016;-60
2022/04/05 09:22:02;;;;;;;15.25;13.82;;;;;;;9.83;100.00;99710.75;5083364;28;20032;-60
2022/04/05 09:24:34;;;;;;;17.13;14.30;;;;;;;9.79;100.00;99711.84;5083599;28;20056;-59
2022/04/05 09:27:00;;;;;;;15.80;14.25;;;;;;;9.70;100.00;99696.63;5088419;28;20042;-59
2022/04/05 09:29:42;;;;;;;16.38;14.00;;;;;;;9.70;100.00;99705.34;5089520;28;20032;-59
2022/04/05 09:32:08;;;;;;;17.10;13.07;;;;;;;9.65;100.00;99688.19;5088914;28;20035;-60
2022/04/05 09:34:47;;;;;;;15.00;13.55;;;;;;;9.84;100.00;99715.03;5090357;28;20046;-60
2022/04/05 09:37:13;;;;;;;17.05;15.30;;;;;;;9.95;100.00;99723.13;5089709;28;20035;-60
2022/04/05 09:39:38;;;;;;;14.45;12.95;;;;;;;10.02;100.00;99723.63;5083888;28;20032;-60
2022/04/05 09:42:07;;;;;;;15.88;14.23;;;;;;;10.05;100.00;99718.19;5079986;28;20028;-60
2022/04/05 09:44:38;;;;;;;16.45;14.68;;;;;;;10.08;100.00;99721.47;5070206;28;20021;-60
2022/04/05 09:47:16;;;;;;;15.77;13.55;;;;;;;10.16;100.00;99729.78;5080937;28;20039;-59
2022/04/05 09:49:43;;;;;;;17.08;13.30;;;;;;;10.23;100.00;99722.38;5090977;28;20474;-60
2022/04/05 09:52:31;;;;;;;14.18;12.68;;;;;;;10.30;100.00;99723.72;5071261;28;20035;-59
2022/04/05 09:55:09;;;;;;;13.65;12.20;;;;;;;10.33;100.00;99727.94;5088652;28;20035;-59
2022/04/05 09:57:36;;;;;;;13.98;12.52;;;;;;;10.49;100.00;99719.03;5089586;28;20086;-59
2022/04/05 10:00:10;;;;;;;14.85;12.75;;;;;;;10.51;100.00;99711.88;5088178;28;20036;-60
2022/04/05 10:02:35;;;;;;;13.65;12.25;;;;;;;10.24;100.00;99666.28;5084291;28;20086;-59
2022/04/05 10:05:05;;;;;;;11.80;10.60;;;;;;;10.51;100.00;99717.16;5078360;28;20036;-59
2022/04/05 10:07:31;;;;;;;14.82;11.95;;;;;;;10.47;100.00;99707.78;5048780;28;20043;-59
2022/04/05 10:10:00;;;;;;;12.40;10.50;;;;;;;10.57;100.00;99722.06;5029154;28;20086;-59
2022/04/05 10:12:27;;;;;;;12.40;11.18;;;;;;;10.37;100.00;99704.03;5046006;28;20028;-60
2022/04/05 10:14:52;;;;;;;11.38;10.18;;;;;;;10.45;100.00;99712.28;5049183;28;20020;-60
2022/04/05 10:17:19;;;;;;;12.73;11.30;;;;;;;10.56;100.00;99724.75;5047402;28;20066;-60
2022/04/05 10:19:48;;;;;;;11.02;9.93;;;;;;;10.36;100.00;99689.19;5047594;28;20043;-60
2022/04/05 10:22:16;;;;;;;12.90;10.93;;;;;;;10.61;100.00;99720.09;5045769;28;20090;-60
2022/04/05 10:24:42;;;;;;;12.27;10.00;;;;;;;10.59;100.00;99719.31;5035724;28;20032;-60
2022/04/05 10:27:08;;;;;;;11.57;10.40;;;;;;;10.62;100.00;99721.75;5033053;28;20121;-60
2022/04/05 10:29:34;;;;;;;11.88;10.60;;;;;;;10.59;100.00;99721.94;5031045;28;20074;-60
2022/04/05 10:32:10;;;;;;;11.77;9.63;;;;;;;10.60;100.00;99727.13;5048337;28;20040;-60
2022/04/05 10:34:46;;;;;;;11.30;9.32;;;;;;;10.55;100.00;99713.41;5049908;28;20116;-60
2022/04/05 10:37:18;;;;;;;11.00;9.88;;;;;;;10.55;100.00;99725.69;5048930;28;20075;-60
2022/04/05 10:40:10;;;;;;;13.90;9.90;;;;;;;10.54;100.00;99732.75;5045848;28;20127;-60
2022/04/05 10:42:44;;;;;;;11.77;10.43;;;;;;;10.56;100.00;99736.13;5037902;28;20078;-60
2022/04/05 10:45:20;;;;;;;;;;;;;;;10.60;100.00;99726.25;5047550;28;20906;-59
2022/04/05 10:48:18;;;;;;;10.23;9.13;;;;;;;10.57;100.00;99739.59;5049249;28;19923;-59
2022/04/05 10:50:45;;;;;;;12.52;10.52;;;;;;;10.49;100.00;99724.28;5048333;28;20315;-60
2022/04/05 10:53:22;;;;;;;10.90;9.73;;;;;;;10.46;100.00;99734.97;5047853;28;20078;-60
2022/04/05 10:56:03;;;;;;;13.18;10.82;;;;;;;10.52;100.00;99733.75;5048449;28;20241;-60
2022/04/05 10:58:29;;;;;;;11.93;10.70;;;;;;;10.44;100.00;99717.63;5048699;28;20114;-60
2022/04/05 11:01:19;;;;;;;14.00;11.25;;;;;;;10.55;100.00;99721.28;5047763;28;20028;-60
2022/04/05 11:04:09;;;;;;;12.48;11.20;;;;;;;10.61;100.00;99728.78;5063562;28;20036;-60
2022/04/05 11:07:06;;;;;;;10.95;9.85;;;;;;;10.83;100.00;99715.19;5045171;28;20035;-60
2022/04/05 11:09:32;;;;;;;11.60;9.88;;;;;;;10.95;100.00;99717.03;5046623;28;20039;-60
2022/04/05 11:12:01;;;;;;;11.98;10.75;;;;;;;11.08;100.00;99717.97;5047609;28;20877;-60
2022/04/05 11:15:08;;;;;;;10.50;9.05;;;;;;;11.15;100.00;99736.84;5027186;28;20139;-60
2022/04/05 11:17:36;;;;;;;11.43;9.15;;;;;;;11.31;100.00;99718.28;5050419;28;20036;-60